Time;durP1;ratioP1;P1;durP2;ratioP2;P2;SDS_P1;SDS_P2;PMS_P1;PMS_P2;Temp;Humidity;BMP_temperature;BMP_pressure;BME280_temperature;BME280_humidity;BME280_pressure;Samples;Min_cycle;Max_cycle;Signal;HPM_P1;HPM_P2
2021/10/16 00:01:49;;;;;;;;;;;27.60;41.10;;;;;;5094106;28;19912;-82
2021/10/16 00:04:15;;;;;;;;;;;27.70;41.20;;;;;;5095218;28;20329;-78
2021/10/16 00:06:42;;;;;;;;;;;27.70;41.20;;;;;;5094108;28;19908;-82
2021/10/16 00:09:10;;;;;;;;;;;27.70;41.20;;;;;;5094150;28;20057;-81
2021/10/16 00:11:41;;;;;;;;;;;27.70;41.20;;;;;;5077323;28;19991;-80
2021/10/16 00:14:06;;;;;;;;;;;27.70;41.20;;;;;;5077779;28;19908;-78
2021/10/16 00:16:32;;;;;;;;;;;27.60;41.20;;;;;;5077028;28;19908;-80
2021/10/16 00:18:57;;;;;;;;;;;27.70;41.20;;;;;;5077070;28;20003;-80
2021/10/16 00:21:23;;;;;;;;;;;27.70;41.30;;;;;;5093891;28;19912;-82
2021/10/16 00:23:51;;;;;;;;;;;27.70;41.30;;;;;;5094202;28;19908;-81
2021/10/16 00:26:16;;;;;;;;;;;27.60;41.20;;;;;;5093989;28;19978;-79
2021/10/16 00:28:44;;;;;;;;;;;27.70;41.30;;;;;;5076928;28;19908;-77
2021/10/16 00:31:10;;;;;;;;;;;27.70;41.30;;;;;;5093696;28;19909;-79
2021/10/16 00:33:35;;;;;;;;;;;27.70;41.30;;;;;;5093429;28;20316;-78
2021/10/16 00:36:01;;;;;;;;;;;27.70;41.30;;;;;;5076592;28;20011;-79
2021/10/16 00:38:27;;;;;;;;;;;27.70;41.30;;;;;;5093416;28;19918;-80
2021/10/16 00:40:52;;;;;;;;;;;27.70;41.30;;;;;;5076994;28;19912;-79
2021/10/16 00:43:20;;;;;;;;;;;27.60;41.30;;;;;;5076944;28;19908;-82
2021/10/16 00:45:46;;;;;;;;;;;27.70;41.30;;;;;;5093922;28;20366;-81
2021/10/16 00:48:14;;;;;;;;;;;27.70;42.00;;;;;;5093692;28;19994;-79
2021/10/16 00:50:42;;;;;;;;;;;27.70;41.30;;;;;;5093510;28;19908;-78
2021/10/16 00:53:07;;;;;;;;;;;27.70;41.30;;;;;;5077373;28;19995;-79
2021/10/16 00:55:33;;;;;;;;;;;27.70;41.40;;;;;;5076657;28;19991;-79
2021/10/16 00:58:03;;;;;;;;;;;27.60;41.30;;;;;;5093401;28;19912;-80
2021/10/16 01:00:29;;;;;;;;;;;27.60;41.30;;;;;;5077191;28;19912;-80
2021/10/16 01:02:59;;;;;;;;;;;27.70;41.40;;;;;;5080379;28;19923;-78
2021/10/16 01:05:27;;;;;;;;;;;27.60;41.30;;;;;;5080591;28;19912;-80
2021/10/16 01:07:55;;;;;;;;;;;27.70;41.40;;;;;;5080439;28;19908;-78
2021/10/16 01:10:20;;;;;;;;;;;27.70;41.50;;;;;;5080606;28;20268;-79
2021/10/16 01:12:47;;;;;;;;;;;27.60;41.40;;;;;;5080063;28;19955;-80
2021/10/16 01:15:13;;;;;;;;;;;27.60;41.40;;;;;;5080209;28;19912;-78
2021/10/16 01:17:41;;;;;;;;;;;27.60;41.40;;;;;;5080138;28;19908;-79
2021/10/16 01:20:20;;;;;;;;;;;27.60;41.40;;;;;;5079846;28;19923;-78
2021/10/16 01:22:45;;;;;;;;;;;27.60;41.40;;;;;;5079872;28;19908;-82
2021/10/16 01:25:12;;;;;;;;;;;27.60;41.50;;;;;;5096920;28;20374;-81
2021/10/16 01:27:40;;;;;;;;;;;27.60;41.50;;;;;;5097643;28;19912;-80
2021/10/16 01:30:07;;;;;;;;;;;27.60;41.50;;;;;;5096850;28;19936;-81
2021/10/16 01:32:35;;;;;;;;;;;27.70;41.50;;;;;;5096872;28;19943;-80
2021/10/16 01:35:02;;;;;;;;;;;27.70;41.50;;;;;;5079759;28;19918;-80
2021/10/16 01:37:27;;;;;;;;;;;27.60;42.00;;;;;;5079723;28;20010;-80
2021/10/16 01:39:53;;;;;;;;;;;27.70;41.50;;;;;;5097471;28;20023;-84
2021/10/16 01:42:21;;;;;;;;;;;27.60;41.50;;;;;;5081147;28;20479;-78
2021/10/16 01:44:46;;;;;;;;;;;27.60;41.50;;;;;;5081836;28;19908;-81
2021/10/16 01:47:12;;;;;;;;;;;27.60;41.50;;;;;;5098065;28;20363;-80
2021/10/16 01:49:37;;;;;;;;;;;27.60;41.50;;;;;;5080944;28;19907;-80
2021/10/16 01:52:05;;;;;;;;;;;27.70;41.60;;;;;;5080213;28;19919;-79
2021/10/16 01:54:31;;;;;;;;;;;27.70;41.60;;;;;;5096424;28;19908;-78
2021/10/16 01:56:57;;;;;;;;;;;27.70;41.60;;;;;;5097529;28;19982;-78
2021/10/16 01:59:26;;;;;;;;;;;27.60;41.50;;;;;;5079639;28;19908;-78
2021/10/16 02:01:59;;;;;;;;;;;27.70;41.60;;;;;;5096191;28;19908;-79
2021/10/16 02:04:25;;;;;;;;;;;27.70;41.60;;;;;;5079591;28;19939;-79
2021/10/16 02:06:51;;;;;;;;;;;27.60;41.60;;;;;;5096251;28;19919;-81
2021/10/16 02:09:17;;;;;;;;;;;27.60;41.60;;;;;;5097088;28;19948;-82
2021/10/16 02:11:45;;;;;;;;;;;27.60;41.50;;;;;;5096123;28;19919;-80
2021/10/16 02:14:10;;;;;;;;;;;27.70;41.60;;;;;;5095630;28;19911;-80
2021/10/16 02:16:36;;;;;;;;;;;27.70;41.60;;;;;;5095980;28;20326;-79
2021/10/16 02:19:02;;;;;;;;;;;27.60;41.60;;;;;;5095848;28;19915;-78
2021/10/16 02:21:32;;;;;;;;;;;27.60;41.60;;;;;;5095541;28;19966;-80
2021/10/16 02:24:00;;;;;;;;;;;27.60;41.60;;;;;;5079290;28;19943;-80
2021/10/16 02:26:28;;;;;;;;;;;27.60;41.60;;;;;;5078642;28;20286;-78
2021/10/16 02:28:54;;;;;;;;;;;27.60;41.60;;;;;;5096012;28;20327;-83
2021/10/16 02:31:20;;;;;;;;;;;27.60;41.60;;;;;;5095564;28;19944;-82
2021/10/16 02:33:49;;;;;;;;;;;27.60;41.70;;;;;;5078896;28;19964;-83
2021/10/16 02:36:15;;;;;;;;;;;27.60;41.70;;;;;;5095367;28;19935;-80
2021/10/16 02:38:40;;;;;;;;;;;27.70;41.70;;;;;;5096144;28;19912;-78
2021/10/16 02:41:06;;;;;;;;;;;27.60;41.70;;;;;;5095472;28;19912;-78
2021/10/16 02:43:36;;;;;;;;;;;27.60;41.70;;;;;;5078459;28;19973;-78
2021/10/16 02:46:02;;;;;;;;;;;27.60;41.70;;;;;;5078774;28;19919;-79
2021/10/16 02:48:27;;;;;;;;;;;27.60;41.70;;;;;;5095271;28;19908;-79
2021/10/16 02:50:55;;;;;;;;;;;27.60;41.70;;;;;;5078330;28;19939;-81
2021/10/16 02:53:21;;;;;;;;;;;27.70;41.70;;;;;;5078548;28;20360;-78
2021/10/16 02:55:46;;;;;;;;;;;27.60;41.70;;;;;;5078373;28;19908;-80
2021/10/16 02:58:14;;;;;;;;;;;27.60;41.70;;;;;;5078109;28;19915;-78
2021/10/16 03:00:40;;;;;;;;;;;27.70;41.70;;;;;;5095633;28;19918;-79
2021/10/16 03:03:05;;;;;;;;;;;27.70;41.70;;;;;;5094976;28;19998;-80
2021/10/16 03:05:31;;;;;;;;;;;27.70;41.70;;;;;;5078015;28;19919;-79
2021/10/16 03:07:56;;;;;;;;;;;27.70;41.70;;;;;;5078539;28;19908;-80
2021/10/16 03:10:22;;;;;;;;;;;27.60;41.70;;;;;;5078635;28;19908;-79
2021/10/16 03:12:47;;;;;;;;;;;27.60;41.70;;;;;;5102232;28;19908;-79
2021/10/16 03:15:14;;;;;;;;;;;27.60;41.70;;;;;;5084928;28;19915;-80
2021/10/16 03:17:42;;;;;;;;;;;27.60;41.70;;;;;;5081846;28;19916;-79
2021/10/16 03:20:09;;;;;;;;;;;27.60;41.70;;;;;;5082383;28;19916;-80
2021/10/16 03:22:37;;;;;;;;;;;27.60;41.70;;;;;;5100395;28;19919;-80
2021/10/16 03:25:03;;;;;;;;;;;27.60;41.80;;;;;;5103974;28;19908;-80
2021/10/16 03:27:28;;;;;;;;;;;27.60;41.70;;;;;;5104296;28;20417;-81
2021/10/16 03:29:54;;;;;;;;;;;27.70;41.80;;;;;;5100047;28;20111;-80
2021/10/16 03:32:20;;;;;;;;;;;27.70;41.80;;;;;;5080114;28;19951;-77
2021/10/16 03:34:45;;;;;;;;;;;27.60;41.80;;;;;;5095095;28;19933;-83
2021/10/16 03:37:13;;;;;;;;;;;27.60;41.80;;;;;;5094338;28;20014;-81
2021/10/16 03:39:38;;;;;;;;;;;27.60;41.80;;;;;;5094252;28;19923;-78
2021/10/16 03:42:04;;;;;;;;;;;27.70;41.80;;;;;;5077403;28;19912;-81
2021/10/16 03:44:29;;;;;;;;;;;27.60;41.80;;;;;;5077337;28;19947;-80
2021/10/16 03:46:55;;;;;;;;;;;27.60;41.80;;;;;;5094231;28;20367;-80
2021/10/16 03:49:20;;;;;;;;;;;27.60;41.80;;;;;;5094527;28;19908;-79
2021/10/16 03:51:51;;;;;;;;;;;27.60;41.80;;;;;;5077754;28;20030;-79
2021/10/16 03:54:17;;;;;;;;;;;27.60;41.80;;;;;;5077707;28;19908;-80
2021/10/16 03:56:44;;;;;;;;;;;27.60;41.80;;;;;;5076998;28;19912;-81
2021/10/16 03:59:10;;;;;;;;;;;27.60;41.80;;;;;;5094290;28;20329;-79
2021/10/16 04:01:36;;;;;;;;;;;27.60;41.70;;;;;;5077004;28;19965;-78
2021/10/16 04:04:06;;;;;;;;;;;27.60;41.80;;;;;;5093942;28;19935;-81
2021/10/16 04:06:31;;;;;;;;;;;27.70;41.90;;;;;;5077193;28;20325;-83
2021/10/16 04:08:57;;;;;;;;;;;27.70;41.90;;;;;;5094058;28;19915;-79
2021/10/16 04:11:22;;;;;;;;;;;27.60;41.80;;;;;;5094022;28;19908;-80
2021/10/16 04:13:50;;;;;;;;;;;27.60;41.90;;;;;;5077153;28;19912;-82
2021/10/16 04:16:16;;;;;;;;;;;27.60;41.90;;;;;;5077139;28;19908;-81
2021/10/16 04:18:41;;;;;;;;;;;27.60;41.80;;;;;;5077527;28;19912;-79
2021/10/16 04:21:09;;;;;;;;;;;27.60;41.80;;;;;;5093746;28;19912;-81
2021/10/16 04:23:35;;;;;;;;;;;27.60;41.80;;;;;;5093916;28;19955;-82
2021/10/16 04:26:02;;;;;;;;;;;27.60;41.90;;;;;;5093729;28;20036;-77
2021/10/16 04:28:30;;;;;;;;;;;27.60;41.90;;;;;;5093733;28;19915;-80
2021/10/16 04:30:56;;;;;;;;;;;27.60;41.90;;;;;;5094720;28;19927;-83
2021/10/16 04:33:21;;;;;;;;;;;27.60;41.90;;;;;;5093557;28;19908;-77
2021/10/16 04:35:47;;;;;;;;;;;27.60;41.90;;;;;;5077760;28;20303;-80
2021/10/16 04:38:15;;;;;;;;;;;27.70;41.90;;;;;;5081033;28;20344;-83
2021/10/16 04:40:41;;;;;;;;;;;27.60;41.90;;;;;;5097719;28;20008;-79
2021/10/16 04:43:07;;;;;;;;;;;27.60;41.90;;;;;;5097975;28;19959;-79
2021/10/16 04:45:35;;;;;;;;;;;27.60;41.90;;;;;;5097595;28;20266;-79
2021/10/16 04:48:03;;;;;;;;;;;27.60;41.90;;;;;;5097718;28;19908;-79
2021/10/16 04:50:28;;;;;;;;;;;27.60;41.90;;;;;;5081395;28;19909;-80
2021/10/16 04:52:54;;;;;;;;;;;27.60;41.90;;;;;;5097731;28;20329;-80
2021/10/16 04:55:23;;;;;;;;;;;27.60;41.90;;;;;;5097542;28;19908;-79
2021/10/16 04:57:48;;;;;;;;;;;27.60;41.90;;;;;;5097506;28;19908;-78
2021/10/16 05:00:16;;;;;;;;;;;27.60;41.90;;;;;;5080402;28;20267;-79
2021/10/16 05:02:42;;;;;;;;;;;27.60;41.90;;;;;;5097220;28;19912;-78
2021/10/16 05:05:12;;;;;;;;;;;27.70;42.00;;;;;;5080443;28;20244;-81
2021/10/16 05:07:38;;;;;;;;;;;27.70;42.00;;;;;;5097266;28;19908;-81
2021/10/16 05:10:07;;;;;;;;;;;27.60;41.90;;;;;;5098030;28;19915;-81
2021/10/16 05:12:35;;;;;;;;;;;27.60;41.90;;;;;;5080620;28;19915;-79
2021/10/16 05:15:03;;;;;;;;;;;27.60;41.90;;;;;;5097031;28;19908;-78
2021/10/16 05:17:29;;;;;;;;;;;27.60;41.90;;;;;;5097014;28;20345;-79
2021/10/16 05:19:55;;;;;;;;;;;27.60;41.90;;;;;;5097034;28;20361;-79
2021/10/16 05:22:21;;;;;;;;;;;27.60;42.00;;;;;;5096763;28;19908;-77
2021/10/16 05:24:46;;;;;;;;;;;27.60;42.00;;;;;;5096903;28;19908;-81
2021/10/16 05:27:12;;;;;;;;;;;27.60;42.00;;;;;;5079941;28;19995;-80
2021/10/16 05:29:37;;;;;;;;;;;27.60;42.00;;;;;;5096852;28;19955;-80
2021/10/16 05:32:06;;;;;;;;;;;27.60;42.00;;;;;;5096661;28;20003;-78
2021/10/16 05:34:31;;;;;;;;;;;27.30;34.90;;;;;;5079805;28;19909;-79
2021/10/16 05:36:58;;;;;;;;;;;26.20;34.30;;;;;;5079519;28;20406;-76
2021/10/16 05:39:23;;;;;;;;;;;25.20;35.90;;;;;;5096341;28;19908;-76
2021/10/16 05:41:51;;;;;;;;;;;24.50;37.10;;;;;;5096414;28;20374;-78
2021/10/16 05:44:16;;;;;;;;;;;23.70;38.50;;;;;;5096165;28;19916;-79
2021/10/16 05:46:42;;;;;;;;;;;23.20;39.80;;;;;;5080036;28;20256;-79
2021/10/16 05:49:07;;;;;;;;;;;23.30;40.80;;;;;;5096635;28;19999;-76
2021/10/16 05:51:36;;;;;;;;;;;23.70;40.70;;;;;;5096543;28;19911;-82
2021/10/16 05:54:03;;;;;;;;;;;24.20;40.30;;;;;;5096586;28;20007;-80
2021/10/16 05:56:31;;;;;;;;;;;24.60;39.90;;;;;;5079833;28;19920;-81
2021/10/16 05:58:59;;;;;;;;;;;25.00;39.70;;;;;;5096416;28;19914;-79
2021/10/16 06:01:25;;;;;;;;;;;25.20;39.40;;;;;;5079725;28;19912;-78
2021/10/16 06:03:50;;;;;;;;;;;25.50;39.20;;;;;;5079228;28;20242;-80
2021/10/16 06:06:16;;;;;;;;;;;25.70;39.00;;;;;;5096251;28;19966;-80
2021/10/16 06:08:41;;;;;;;;;;;25.90;39.10;;;;;;5079308;28;19912;-78
2021/10/16 06:11:07;;;;;;;;;;;26.00;39.00;;;;;;5079016;28;19908;-80
2021/10/16 06:13:32;;;;;;;;;;;26.10;39.00;;;;;;5096465;28;20260;-80
2021/10/16 06:15:58;;;;;;;;;;;26.20;39.00;;;;;;5079027;28;19916;-76
2021/10/16 06:18:25;;;;;;;;;;;26.20;39.00;;;;;;5095695;28;19930;-81
2021/10/16 06:20:53;;;;;;;;;;;26.30;39.00;;;;;;5095877;28;19912;-80
2021/10/16 06:23:18;;;;;;;;;;;26.30;39.10;;;;;;5078801;28;19962;-77
2021/10/16 06:25:44;;;;;;;;;;;26.40;39.10;;;;;;5078740;28;19916;-81
2021/10/16 06:28:14;;;;;;;;;;;26.50;39.30;;;;;;5078733;28;19908;-79
2021/10/16 06:30:42;;;;;;;;;;;26.50;39.40;;;;;;5095713;28;19908;-80
2021/10/16 06:33:08;;;;;;;;;;;26.50;39.40;;;;;;5078783;28;19908;-79
2021/10/16 06:35:37;;;;;;;;;;;26.50;39.50;;;;;;5078823;28;19919;-79
2021/10/16 06:38:04;;;;;;;;;;;26.60;39.60;;;;;;5079010;28;20345;-82
2021/10/16 06:40:31;;;;;;;;;;;26.60;39.60;;;;;;5078981;28;20333;-82
2021/10/16 06:42:56;;;;;;;;;;;26.60;39.60;;;;;;5078642;28;19923;-80
2021/10/16 06:45:22;;;;;;;;;;;26.70;39.70;;;;;;5078763;28;19912;-81
2021/10/16 06:47:50;;;;;;;;;;;26.70;39.70;;;;;;5095528;28;19908;-84
2021/10/16 06:50:15;;;;;;;;;;;26.70;39.70;;;;;;5078477;28;19926;-81
2021/10/16 06:52:43;;;;;;;;;;;26.70;39.70;;;;;;5078438;28;20003;-78
2021/10/16 06:55:09;;;;;;;;;;;26.70;39.80;;;;;;5078536;28;19978;-80
2021/10/16 06:57:37;;;;;;;;;;;26.70;39.80;;;;;;5095200;28;20333;-79
2021/10/16 07:00:03;;;;;;;;;;;26.80;39.90;;;;;;5094489;28;19916;-78
2021/10/16 07:02:29;;;;;;;;;;;26.70;39.70;;;;;;5095541;28;19935;-81
2021/10/16 07:04:54;;;;;;;;;;;26.80;40.00;;;;;;5078184;28;20344;-81
2021/10/16 07:07:19;;;;;;;;;;;26.80;40.00;;;;;;5078307;28;19908;-79
2021/10/16 07:09:45;;;;;;;;;;;26.80;39.90;;;;;;5098580;28;20329;-78
2021/10/16 07:12:11;;;;;;;;;;;26.80;40.00;;;;;;5085003;28;19999;-79
2021/10/16 07:14:38;;;;;;;;;;;26.80;40.00;;;;;;5099631;28;20272;-78
2021/10/16 07:17:04;;;;;;;;;;;26.80;40.00;;;;;;5087285;28;19934;-77
2021/10/16 07:19:34;;;;;;;;;;;26.90;40.10;;;;;;5101099;28;19908;-83
2021/10/16 07:22:00;;;;;;;;;;;26.90;40.10;;;;;;5103681;28;19954;-79
2021/10/16 07:24:28;;;;;;;;;;;26.90;40.10;;;;;;5097641;28;19916;-81
2021/10/16 07:26:55;;;;;;;;;;;26.90;40.10;;;;;;5078637;28;19908;-81
2021/10/16 07:29:23;;;;;;;;;;;26.90;40.10;;;;;;5078675;28;20275;-82
2021/10/16 07:31:50;;;;;;;;;;;26.90;40.10;;;;;;5078478;28;19908;-81
2021/10/16 07:34:15;;;;;;;;;;;26.90;40.20;;;;;;5077491;28;19912;-82
2021/10/16 07:36:43;;;;;;;;;;;26.90;40.20;;;;;;5077174;28;20061;-80
2021/10/16 07:39:11;;;;;;;;;;;26.90;40.20;;;;;;5078209;28;19919;-82
2021/10/16 07:41:39;;;;;;;;;;;26.90;40.20;;;;;;5081654;28;20297;-82
2021/10/16 07:44:07;;;;;;;;;;;26.90;40.20;;;;;;5107211;28;20284;-80
2021/10/16 07:46:33;;;;;;;;;;;27.00;40.30;;;;;;5090806;28;19908;-82
2021/10/16 07:48:58;;;;;;;;;;;26.90;40.40;;;;;;5107769;28;19912;-80
2021/10/16 07:51:24;;;;;;;;;;;27.00;40.40;;;;;;5074880;28;19967;-80
2021/10/16 07:53:54;;;;;;;;;;;26.90;40.30;;;;;;5107496;28;19952;-78
2021/10/16 07:56:20;;;;;;;;;;;27.00;40.40;;;;;;5107110;28;19908;-80
2021/10/16 07:58:45;;;;;;;;;;;26.90;40.50;;;;;;5073817;28;19958;-79
2021/10/16 08:01:13;;;;;;;;;;;27.00;40.50;;;;;;5074718;28;20387;-81
2021/10/16 08:03:38;;;;;;;;;;;27.00;40.50;;;;;;5090557;28;19912;-80
2021/10/16 08:06:04;;;;;;;;;;;27.00;40.60;;;;;;5090452;28;19918;-79
2021/10/16 08:08:30;;;;;;;;;;;27.00;40.60;;;;;;5107464;28;19908;-80
2021/10/16 08:10:55;;;;;;;;;;;27.00;40.60;;;;;;5106714;28;19914;-80
2021/10/16 08:13:21;;;;;;;;;;;27.10;40.60;;;;;;5107343;28;19909;-81
2021/10/16 08:15:46;;;;;;;;;;;27.20;40.30;;;;;;5107529;28;19909;-79
2021/10/16 08:18:12;;;;;;;;;;;27.30;40.40;;;;;;5090558;28;19908;-82
2021/10/16 08:20:37;;;;;;;;;;;27.30;40.30;;;;;;5090547;28;19958;-78
2021/10/16 08:23:05;;;;;;;;;;;27.40;40.30;;;;;;5090516;28;20276;-75
2021/10/16 08:25:31;;;;;;;;;;;27.50;40.10;;;;;;5074641;28;20252;-79
2021/10/16 08:27:56;;;;;;;;;;;27.50;40.10;;;;;;5090544;28;20345;-79
2021/10/16 08:30:22;;;;;;;;;;;27.50;40.40;;;;;;5107048;28;20319;-82
2021/10/16 08:32:47;;;;;;;;;;;27.50;40.50;;;;;;5090169;28;19908;-81
2021/10/16 08:35:15;;;;;;;;;;;27.50;40.60;;;;;;5090280;28;19970;-79
2021/10/16 08:37:45;;;;;;;;;;;27.50;40.80;;;;;;5089711;28;19931;-82
2021/10/16 08:40:16;;;;;;;;;;;27.50;40.90;;;;;;5089899;28;19917;-79
2021/10/16 08:42:44;;;;;;;;;;;27.40;40.90;;;;;;5090250;28;19913;-81
2021/10/16 08:45:12;;;;;;;;;;;27.40;41.00;;;;;;5090102;28;19909;-80
2021/10/16 08:47:38;;;;;;;;;;;27.40;41.00;;;;;;5073055;28;19987;-79
2021/10/16 08:50:07;;;;;;;;;;;27.40;41.10;;;;;;5107048;28;20003;-79
2021/10/16 08:52:35;;;;;;;;;;;27.40;41.10;;;;;;5090120;28;19918;-79
2021/10/16 08:55:00;;;;;;;;;;;27.40;41.10;;;;;;5090260;28;20258;-79
2021/10/16 08:57:38;;;;;;;;;;;27.40;41.10;;;;;;5107048;28;19913;-81
2021/10/16 09:00:22;;;;;;;;;;;27.40;41.10;;;;;;5090466;28;19913;-80
2021/10/16 09:02:48;;;;;;;;;;;27.40;41.10;;;;;;5074809;28;19959;-82
2021/10/16 09:05:13;;;;;;;;;;;27.40;41.10;;;;;;5074742;28;19908;-80
2021/10/16 09:07:39;;;;;;;;;;;27.40;41.10;;;;;;5107869;28;19997;-80
2021/10/16 09:10:21;;;;;;;;;;;27.40;41.10;;;;;;5090644;28;20003;-79
2021/10/16 09:12:47;;;;;;;;;;;27.40;41.10;;;;;;5115466;28;20352;-79
2021/10/16 09:15:24;;;;;;;;;;;27.40;41.20;;;;;;5094602;28;20412;-82
2021/10/16 09:18:05;;;;;;;;;;;27.30;41.20;;;;;;5096862;28;19915;-81
2021/10/16 09:20:34;;;;;;;;;;;27.30;41.20;;;;;;5078844;28;19938;-80
2021/10/16 09:23:07;;;;;;;;;;;27.30;41.20;;;;;;5096650;28;19908;-82
2021/10/16 09:25:32;;;;;;;;;;;27.30;41.20;;;;;;5097544;28;19965;-81
2021/10/16 09:28:13;;;;;;;;;;;27.30;41.20;;;;;;5080715;28;20000;-81
2021/10/16 09:30:47;;;;;;;;;;;27.30;41.20;;;;;;5097909;28;19908;-79
2021/10/16 09:33:16;;;;;;;;;;;27.30;41.20;;;;;;5100352;28;19908;-79
2021/10/16 09:35:44;;;;;;;;;;;27.40;41.20;;;;;;5080824;28;20022;-80
2021/10/16 09:38:10;;;;;;;;;;;27.40;41.00;;;;;;5097345;28;19919;-81
2021/10/16 09:40:41;;;;;;;;;;;27.50;41.00;;;;;;5080222;28;19912;-81
2021/10/16 09:43:20;;;;;;;;;;;27.50;40.90;;;;;;5080065;28;19916;-78
2021/10/16 09:45:46;;;;;;;;;;;27.50;40.90;;;;;;5097972;28;20308;-78
2021/10/16 09:48:11;;;;;;;;;;;27.50;40.90;;;;;;5080305;28;19999;-79
2021/10/16 09:50:37;;;;;;;;;;;27.60;40.90;;;;;;5096865;28;19920;-78
2021/10/16 09:53:23;;;;;;;;;;;27.60;40.90;;;;;;5096880;28;19908;-80
2021/10/16 09:55:48;;;;;;;;;;;27.60;40.90;;;;;;5096322;28;20015;-79
2021/10/16 09:58:14;;;;;;;;;;;27.60;40.90;;;;;;5080037;28;19944;-79
2021/10/16 10:00:39;;;;;;;;;;;27.60;40.90;;;;;;5096538;28;19928;-79
2021/10/16 10:03:05;;;;;;;;;;;27.60;40.90;;;;;;5113511;28;19923;-81
2021/10/16 10:05:33;;;;;;;;;;;27.60;40.80;;;;;;5113484;28;19916;-80
2021/10/16 10:08:01;;;;;;;;;;;27.60;40.80;;;;;;5113222;28;19908;-78
2021/10/16 10:10:29;;;;;;;;;;;27.60;40.80;;;;;;5130759;27;19939;-82
2021/10/16 10:12:57;;;;;;;;;;;27.60;40.80;;;;;;5113144;28;20245;-82
2021/10/16 10:15:23;;;;;;;;;;;27.60;40.80;;;;;;5096357;28;20351;-81
2021/10/16 10:17:48;;;;;;;;;;;27.60;40.80;;;;;;5130634;27;19983;-79
2021/10/16 10:20:14;;;;;;;;;;;27.60;40.90;;;;;;5095942;28;19912;-79
2021/10/16 10:22:43;;;;;;;;;;;27.60;40.90;;;;;;5130527;27;19908;-80
2021/10/16 10:25:23;;;;;;;;;;;27.60;40.80;;;;;;5112415;28;19923;-79
2021/10/16 10:27:48;;;;;;;;;;;27.60;40.80;;;;;;5097286;28;19912;-83
2021/10/16 10:30:32;;;;;;;;;;;27.60;40.80;;;;;;5097422;28;19919;-80
2021/10/16 10:33:19;;;;;;;;;;;27.60;40.90;;;;;;5095085;28;19908;-79
2021/10/16 10:35:47;;;;;;;;;;;27.60;40.90;;;;;;5097375;28;19924;-79
2021/10/16 10:38:42;;;;;;;;;;;27.60;41.00;;;;;;5105626;28;19966;-82
2021/10/16 10:41:28;;;;;;;;;;;27.60;41.00;;;;;;5094739;28;19912;-80
2021/10/16 10:43:54;;;;;;;;;;;27.60;41.00;;;;;;5103370;28;19908;-83
2021/10/16 10:46:29;;;;;;;;;;;27.60;41.10;;;;;;5143544;27;19919;-76
2021/10/16 10:49:07;;;;;;;;;;;27.60;41.00;;;;;;5144995;27;19934;-76
2021/10/16 10:51:36;;;;;;;;;;;27.60;41.00;;;;;;5142636;27;20027;-77
2021/10/16 10:54:14;;;;;;;;;;;27.60;41.10;;;;;;5132396;27;19908;-82
2021/10/16 10:56:40;;;;;;;;;;;27.60;41.00;;;;;;5098345;28;19918;-81
2021/10/16 10:59:10;;;;;;;;;;;27.60;41.10;;;;;;5107881;28;20700;-81
2021/10/16 11:01:42;;;;;;;;;;;27.60;41.10;;;;;;5108453;28;19916;-79
2021/10/16 11:04:08;;;;;;;;;;;27.60;41.10;;;;;;5077378;28;19962;-81
2021/10/16 11:06:33;;;;;;;;;;;27.60;41.20;;;;;;5113138;28;19909;-80
2021/10/16 11:09:21;;;;;;;;;;;27.60;41.10;;;;;;5097096;28;19908;-78
2021/10/16 11:11:49;;;;;;;;;;;27.60;41.20;;;;;;5080306;28;19951;-79
2021/10/16 11:14:15;;;;;;;;;;;27.60;41.20;;;;;;5133892;27;20043;-80
2021/10/16 11:16:53;;;;;;;;;;;27.60;41.20;;;;;;5101302;28;20332;-77
2021/10/16 11:19:19;;;;;;;;;;;27.60;41.20;;;;;;5083007;28;20052;-81
2021/10/16 11:21:52;;;;;;;;;;;27.60;41.20;;;;;;5095921;28;20397;-81
2021/10/16 11:24:18;;;;;;;;;;;27.60;41.30;;;;;;5079042;28;20388;-80
2021/10/16 11:26:53;;;;;;;;;;;27.60;41.30;;;;;;5095069;28;20061;-81
2021/10/16 11:29:32;;;;;;;;;;;27.60;41.30;;;;;;5078127;28;19919;-80
2021/10/16 11:32:16;;;;;;;;;;;27.60;41.30;;;;;;5077762;28;19915;-80
2021/10/16 11:35:02;;;;;;;;;;;27.60;41.30;;;;;;5095899;28;19908;-78
2021/10/16 11:37:37;;;;;;;;;;;27.60;41.40;;;;;;5094521;28;19924;-80
2021/10/16 11:40:13;;;;;;;;;;;27.60;41.40;;;;;;5094804;28;19912;-78
2021/10/16 11:42:38;;;;;;;;;;;27.60;41.50;;;;;;5095124;28;19908;-78
2021/10/16 11:45:11;;;;;;;;;;;27.60;41.40;;;;;;5077555;28;19919;-79
2021/10/16 11:47:37;;;;;;;;;;;27.60;41.40;;;;;;5077784;28;20286;-81
2021/10/16 11:50:12;;;;;;;;;;;27.60;41.30;;;;;;5099527;28;19966;-81
2021/10/16 11:52:38;;;;;;;;;;;27.50;37.90;;;;;;5097040;28;19998;-79
2021/10/16 11:55:10;;;;;;;;;;;27.00;36.00;;;;;;5081690;28;20076;-79
2021/10/16 11:57:35;;;;;;;;;;;26.20;36.20;;;;;;5096786;28;19916;-76
2021/10/16 12:00:16;;;;;;;;;;;25.10;38.00;;;;;;5094451;28;19938;-81
2021/10/16 12:02:42;;;;;;;;;;;24.00;40.20;;;;;;5095319;28;20521;-78
2021/10/16 12:05:16;;;;;;;;;;;23.10;41.80;;;;;;5111305;28;19947;-77
2021/10/16 12:07:42;;;;;;;;;;;23.10;42.10;;;;;;5094389;28;19912;-78
2021/10/16 12:10:19;;;;;;;;;;;23.00;42.20;;;;;;5111225;28;19978;-79
2021/10/16 12:12:56;;;;;;;;;;;22.40;43.00;;;;;;5094778;28;19908;-77
2021/10/16 12:15:22;;;;;;;;;;;22.20;44.80;;;;;;5094120;28;20230;-80
2021/10/16 12:17:47;;;;;;;;;;;21.90;44.40;;;;;;5111346;28;19969;-81
2021/10/16 12:20:13;;;;;;;;;;;22.20;44.90;;;;;;5095265;28;19917;-79
2021/10/16 12:22:59;;;;;;;;;;;22.90;43.90;;;;;;5128274;27;19908;-82
2021/10/16 12:25:25;;;;;;;;;;;23.60;42.90;;;;;;5094530;28;19908;-79
2021/10/16 12:28:00;;;;;;;;;;;24.30;42.20;;;;;;5128591;28;19947;-79
2021/10/16 12:30:26;;;;;;;;;;;24.70;41.40;;;;;;5111366;28;20214;-80
2021/10/16 12:33:03;;;;;;;;;;;25.00;40.70;;;;;;5128283;28;20375;-79
2021/10/16 12:35:29;;;;;;;;;;;25.30;40.90;;;;;;5094151;28;19909;-79
2021/10/16 12:37:55;;;;;;;;;;;25.50;39.70;;;;;;5111257;28;20016;-80
2021/10/16 12:40:23;;;;;;;;;;;25.60;39.20;;;;;;5111029;28;19912;-77
2021/10/16 12:42:49;;;;;;;;;;;25.70;39.20;;;;;;5110929;28;19939;-80
2021/10/16 12:45:14;;;;;;;;;;;25.80;39.10;;;;;;5128409;28;19916;-80
2021/10/16 12:47:42;;;;;;;;;;;25.80;39.10;;;;;;5111106;28;19919;-83
2021/10/16 12:50:08;;;;;;;;;;;25.90;39.00;;;;;;5111424;28;19999;-81
2021/10/16 12:52:44;;;;;;;;;;;26.00;39.10;;;;;;5128116;28;19956;-79
2021/10/16 12:55:14;;;;;;;;;;;26.00;38.80;;;;;;5110277;28;19908;-81
2021/10/16 12:57:54;;;;;;;;;;;26.10;39.00;;;;;;5096384;28;20006;-78
2021/10/16 13:00:20;;;;;;;;;;;26.10;39.00;;;;;;5083429;28;19986;-83
2021/10/16 13:02:45;;;;;;;;;;;26.10;38.90;;;;;;5094590;28;20362;-80
2021/10/16 13:05:15;;;;;;;;;;;26.20;38.80;;;;;;5111581;28;20302;-81
2021/10/16 13:07:40;;;;;;;;;;;26.20;38.80;;;;;;5111454;28;20003;-82
2021/10/16 13:10:11;;;;;;;;;;;26.20;38.60;;;;;;5077488;28;19955;-82
2021/10/16 13:12:36;;;;;;;;;;;26.30;38.70;;;;;;5116764;27;19919;-85
2021/10/16 13:15:05;;;;;;;;;;;26.30;38.60;;;;;;5080863;28;19908;-82
2021/10/16 13:17:33;;;;;;;;;;;26.30;38.40;;;;;;5097905;28;20270;-81
2021/10/16 13:20:01;;;;;;;;;;;26.30;38.40;;;;;;5080511;28;20318;-82
2021/10/16 13:22:28;;;;;;;;;;;26.30;38.30;;;;;;5081170;28;19912;-82
2021/10/16 13:24:54;;;;;;;;;;;26.30;38.20;;;;;;5098513;28;19909;-81
2021/10/16 13:27:20;;;;;;;;;;;26.40;38.10;;;;;;5080965;28;19908;-81
2021/10/16 13:29:46;;;;;;;;;;;26.40;38.00;;;;;;5097797;28;19915;-81
2021/10/16 13:32:11;;;;;;;;;;;26.40;37.80;;;;;;5080470;28;19919;-80
2021/10/16 13:34:37;;;;;;;;;;;26.40;37.70;;;;;;5080479;28;19908;-79
2021/10/16 13:37:05;;;;;;;;;;;26.40;37.90;;;;;;5080201;28;19922;-82
2021/10/16 13:39:33;;;;;;;;;;;26.40;38.00;;;;;;5097068;28;19908;-80
2021/10/16 13:41:58;;;;;;;;;;;26.50;38.10;;;;;;5097137;28;19912;-80
2021/10/16 13:44:24;;;;;;;;;;;26.50;38.00;;;;;;5079877;28;20390;-79
2021/10/16 13:46:49;;;;;;;;;;;26.50;38.00;;;;;;5097074;28;19919;-79
2021/10/16 13:49:15;;;;;;;;;;;26.50;38.30;;;;;;5096906;28;20378;-81
2021/10/16 13:51:40;;;;;;;;;;;26.60;38.00;;;;;;5080022;28;19918;-82
2021/10/16 13:54:08;;;;;;;;;;;26.60;38.10;;;;;;5079780;28;19914;-81
2021/10/16 13:56:36;;;;;;;;;;;26.60;38.10;;;;;;5079857;28;20064;-82
2021/10/16 13:59:02;;;;;;;;;;;26.70;38.00;;;;;;5096724;28;20032;-80
2021/10/16 14:01:28;;;;;;;;;;;26.70;38.00;;;;;;5113893;28;19912;-82
2021/10/16 14:03:53;;;;;;;;;;;26.70;38.00;;;;;;5113802;28;20314;-79
2021/10/16 14:06:21;;;;;;;;;;;26.70;37.90;;;;;;5113746;28;20309;-82
2021/10/16 14:08:47;;;;;;;;;;;26.70;37.90;;;;;;5114095;28;19912;-78
2021/10/16 14:11:12;;;;;;;;;;;26.70;38.00;;;;;;5113333;28;20006;-78
2021/10/16 14:13:38;;;;;;;;;;;26.70;37.80;;;;;;5114101;28;20252;-80
2021/10/16 14:16:15;;;;;;;;;;;26.70;37.80;;;;;;5080634;28;19909;-78
2021/10/16 14:18:41;;;;;;;;;;;26.70;37.80;;;;;;5097570;28;19912;-80
2021/10/16 14:21:12;;;;;;;;;;;26.70;37.90;;;;;;5080516;28;19930;-77